sensor_id;sensor_type;location;lat;lon;timestamp;P1;durP1;ratioP1;P2;durP2;ratioP2
10596;SDS011;5346;48.766;8.674;2023-12-28T00:01:06;1.60;;;1.20;;
10596;SDS011;5346;48.766;8.674;2023-12-28T00:03:34;3.15;;;1.20;;
10596;SDS011;5346;48.766;8.674;2023-12-28T00:06:18;1.38;;;1.10;;
10596;SDS011;5346;48.766;8.674;2023-12-28T00:08:46;1.63;;;1.30;;
10596;SDS011;5346;48.766;8.674;2023-12-28T00:11:33;1.50;;;1.10;;
10596;SDS011;5346;48.766;8.674;2023-12-28T00:14:07;1.35;;;1.17;;
10596;SDS011;5346;48.766;8.674;2023-12-28T00:16:42;2.05;;;1.50;;
10596;SDS011;5346;48.766;8.674;2023-12-28T00:19:09;1.92;;;1.48;;
10596;SDS011;5346;48.766;8.674;2023-12-28T00:21:47;1.77;;;1.30;;
10596;SDS011;5346;48.766;8.674;2023-12-28T00:24:15;2.40;;;1.50;;
10596;SDS011;5346;48.766;8.674;2023-12-28T00:26:51;1.83;;;1.20;;
10596;SDS011;5346;48.766;8.674;2023-12-28T00:29:18;1.77;;;1.23;;
10596;SDS011;5346;48.766;8.674;2023-12-28T00:31:56;2.63;;;1.47;;
10596;SDS011;5346;48.766;8.674;2023-12-28T00:34:30;1.93;;;1.37;;
10596;SDS011;5346;48.766;8.674;2023-12-28T00:37:10;2.30;;;1.33;;
10596;SDS011;5346;48.766;8.674;2023-12-28T00:39:43;1.90;;;1.35;;
10596;SDS011;5346;48.766;8.674;2023-12-28T00:42:20;1.70;;;1.30;;
10596;SDS011;5346;48.766;8.674;2023-12-28T00:44:48;2.60;;;1.40;;
10596;SDS011;5346;48.766;8.674;2023-12-28T00:47:22;2.10;;;1.33;;
10596;SDS011;5346;48.766;8.674;2023-12-28T00:49:56;2.27;;;1.40;;
10596;SDS011;5346;48.766;8.674;2023-12-28T00:52:32;5.27;;;1.50;;
10596;SDS011;5346;48.766;8.674;2023-12-28T00:55:10;1.48;;;1.10;;
10596;SDS011;5346;48.766;8.674;2023-12-28T00:57:45;3.35;;;1.42;;
10596;SDS011;5346;48.766;8.674;2023-12-28T01:00:12;1.27;;;1.10;;
10596;SDS011;5346;48.766;8.674;2023-12-28T01:02:47;1.33;;;1.00;;
10596;SDS011;5346;48.766;8.674;2023-12-28T01:05:15;1.20;;;1.10;;
10596;SDS011;5346;48.766;8.674;2023-12-28T01:07:53;5.22;;;1.40;;
10596;SDS011;5346;48.766;8.674;2023-12-28T01:10:21;1.15;;;1.05;;
10596;SDS011;5346;48.766;8.674;2023-12-28T01:12:56;1.13;;;1.00;;
10596;SDS011;5346;48.766;8.674;2023-12-28T01:15:29;2.50;;;1.40;;
10596;SDS011;5346;48.766;8.674;2023-12-28T01:18:06;4.40;;;1.40;;
10596;SDS011;5346;48.766;8.674;2023-12-28T01:20:40;1.70;;;1.38;;
10596;SDS011;5346;48.766;8.674;2023-12-28T01:23:15;1.85;;;1.20;;
10596;SDS011;5346;48.766;8.674;2023-12-28T01:26:02;3.15;;;1.10;;
10596;SDS011;5346;48.766;8.674;2023-12-28T01:28:38;2.10;;;1.25;;
10596;SDS011;5346;48.766;8.674;2023-12-28T01:31:16;5.82;;;1.33;;
10596;SDS011;5346;48.766;8.674;2023-12-28T01:33:50;1.73;;;1.45;;
10596;SDS011;5346;48.766;8.674;2023-12-28T01:36:24;3.42;;;1.13;;
10596;SDS011;5346;48.766;8.674;2023-12-28T01:39:04;1.98;;;1.05;;
10596;SDS011;5346;48.766;8.674;2023-12-28T01:41:46;2.53;;;1.17;;
10596;SDS011;5346;48.766;8.674;2023-12-28T01:44:14;1.95;;;1.20;;
10596;SDS011;5346;48.766;8.674;2023-12-28T01:46:47;2.75;;;1.27;;
10596;SDS011;5346;48.766;8.674;2023-12-28T01:49:24;1.60;;;1.17;;
10596;SDS011;5346;48.766;8.674;2023-12-28T01:51:59;1.20;;;1.00;;
10596;SDS011;5346;48.766;8.674;2023-12-28T01:54:30;1.95;;;1.40;;
10596;SDS011;5346;48.766;8.674;2023-12-28T01:57:07;1.65;;;1.10;;
10596;SDS011;5346;48.766;8.674;2023-12-28T01:59:42;1.65;;;1.35;;
10596;SDS011;5346;48.766;8.674;2023-12-28T02:02:16;1.50;;;1.30;;
10596;SDS011;5346;48.766;8.674;2023-12-28T02:04:44;1.88;;;1.27;;
10596;SDS011;5346;48.766;8.674;2023-12-28T02:07:18;2.35;;;1.55;;
10596;SDS011;5346;48.766;8.674;2023-12-28T02:09:48;1.63;;;1.25;;
10596;SDS011;5346;48.766;8.674;2023-12-28T02:12:23;1.40;;;1.02;;
10596;SDS011;5346;48.766;8.674;2023-12-28T02:14:51;2.00;;;1.25;;
10596;SDS011;5346;48.766;8.674;2023-12-28T02:17:28;1.98;;;1.20;;
10596;SDS011;5346;48.766;8.674;2023-12-28T02:20:06;1.42;;;1.17;;
10596;SDS011;5346;48.766;8.674;2023-12-28T02:22:35;1.48;;;1.20;;
10596;SDS011;5346;48.766;8.674;2023-12-28T02:25:11;3.27;;;1.20;;
10596;SDS011;5346;48.766;8.674;2023-12-28T02:27:43;1.38;;;1.10;;
10596;SDS011;5346;48.766;8.674;2023-12-28T02:30:23;2.22;;;1.40;;
10596;SDS011;5346;48.766;8.674;2023-12-28T02:35:45;2.08;;;1.20;;
10596;SDS011;5346;48.766;8.674;2023-12-28T02:38:32;1.45;;;1.30;;
10596;SDS011;5346;48.766;8.674;2023-12-28T02:41:13;1.70;;;1.20;;
10596;SDS011;5346;48.766;8.674;2023-12-28T02:43:48;1.83;;;1.42;;
10596;SDS011;5346;48.766;8.674;2023-12-28T02:46:31;1.55;;;1.13;;
10596;SDS011;5346;48.766;8.674;2023-12-28T02:48:58;1.77;;;1.42;;
10596;SDS011;5346;48.766;8.674;2023-12-28T02:51:37;2.10;;;1.33;;
10596;SDS011;5346;48.766;8.674;2023-12-28T02:54:09;1.83;;;1.25;;
10596;SDS011;5346;48.766;8.674;2023-12-28T02:56:43;2.42;;;1.42;;
10596;SDS011;5346;48.766;8.674;2023-12-28T02:59:11;1.08;;;1.00;;
10596;SDS011;5346;48.766;8.674;2023-12-28T03:01:45;1.73;;;1.35;;
10596;SDS011;5346;48.766;8.674;2023-12-28T03:04:19;1.38;;;1.27;;
10596;SDS011;5346;48.766;8.674;2023-12-28T03:06:56;2.00;;;1.35;;
10596;SDS011;5346;48.766;8.674;2023-12-28T03:09:30;1.85;;;1.25;;
10596;SDS011;5346;48.766;8.674;2023-12-28T03:12:04;2.05;;;1.40;;
10596;SDS011;5346;48.766;8.674;2023-12-28T03:14:42;1.35;;;1.15;;
10596;SDS011;5346;48.766;8.674;2023-12-28T03:17:14;1.85;;;1.10;;
10596;SDS011;5346;48.766;8.674;2023-12-28T03:19:56;2.53;;;1.38;;
10596;SDS011;5346;48.766;8.674;2023-12-28T03:22:30;1.92;;;1.50;;
10596;SDS011;5346;48.766;8.674;2023-12-28T03:24:58;1.77;;;1.25;;
10596;SDS011;5346;48.766;8.674;2023-12-28T03:27:32;1.90;;;1.40;;
10596;SDS011;5346;48.766;8.674;2023-12-28T03:30:00;1.77;;;1.10;;
10596;SDS011;5346;48.766;8.674;2023-12-28T03:32:28;2.08;;;1.40;;
10596;SDS011;5346;48.766;8.674;2023-12-28T03:35:08;2.20;;;1.35;;
10596;SDS011;5346;48.766;8.674;2023-12-28T03:37:42;2.22;;;1.40;;
10596;SDS011;5346;48.766;8.674;2023-12-28T03:40:22;1.52;;;1.35;;
10596;SDS011;5346;48.766;8.674;2023-12-28T03:42:58;3.05;;;1.40;;
10596;SDS011;5346;48.766;8.674;2023-12-28T03:45:32;1.88;;;1.40;;
10596;SDS011;5346;48.766;8.674;2023-12-28T03:48:06;2.65;;;1.45;;
10596;SDS011;5346;48.766;8.674;2023-12-28T03:50:34;1.67;;;1.40;;
10596;SDS011;5346;48.766;8.674;2023-12-28T03:53:17;1.80;;;1.10;;
10596;SDS011;5346;48.766;8.674;2023-12-28T03:55:50;1.52;;;1.25;;
10596;SDS011;5346;48.766;8.674;2023-12-28T03:58:24;1.60;;;1.50;;
10596;SDS011;5346;48.766;8.674;2023-12-28T04:00:58;2.20;;;1.30;;
10596;SDS011;5346;48.766;8.674;2023-12-28T04:03:30;2.40;;;1.50;;
10596;SDS011;5346;48.766;8.674;2023-12-28T04:06:04;2.08;;;1.45;;
10596;SDS011;5346;48.766;8.674;2023-12-28T04:08:47;2.67;;;1.13;;
10596;SDS011;5346;48.766;8.674;2023-12-28T04:11:22;1.85;;;1.35;;
10596;SDS011;5346;48.766;8.674;2023-12-28T04:13:56;2.72;;;1.17;;
10596;SDS011;5346;48.766;8.674;2023-12-28T04:16:24;1.95;;;1.40;;
10596;SDS011;5346;48.766;8.674;2023-12-28T04:18:59;2.13;;;1.25;;
10596;SDS011;5346;48.766;8.674;2023-12-28T04:21:26;1.55;;;1.27;;
10596;SDS011;5346;48.766;8.674;2023-12-28T04:24:01;1.20;;;1.10;;
10596;SDS011;5346;48.766;8.674;2023-12-28T04:26:28;1.85;;;1.20;;
10596;SDS011;5346;48.766;8.674;2023-12-28T04:29:03;1.70;;;1.30;;
10596;SDS011;5346;48.766;8.674;2023-12-28T04:31:53;3.63;;;1.33;;
10596;SDS011;5346;48.766;8.674;2023-12-28T04:34:29;3.40;;;1.40;;
10596;SDS011;5346;48.766;8.674;2023-12-28T04:37:12;1.17;;;1.00;;
10596;SDS011;5346;48.766;8.674;2023-12-28T04:39:54;3.47;;;1.25;;
10596;SDS011;5346;48.766;8.674;2023-12-28T04:42:27;1.23;;;1.15;;
10596;SDS011;5346;48.766;8.674;2023-12-28T04:45:06;1.27;;;1.00;;
10596;SDS011;5346;48.766;8.674;2023-12-28T04:47:49;1.92;;;1.20;;
10596;SDS011;5346;48.766;8.674;2023-12-28T04:50:23;1.35;;;1.08;;
10596;SDS011;5346;48.766;8.674;2023-12-28T04:52:57;2.88;;;1.17;;
10596;SDS011;5346;48.766;8.674;2023-12-28T04:55:37;1.60;;;1.10;;
10596;SDS011;5346;48.766;8.674;2023-12-28T04:58:14;1.63;;;1.33;;
10596;SDS011;5346;48.766;8.674;2023-12-28T05:00:48;3.83;;;1.10;;
10596;SDS011;5346;48.766;8.674;2023-12-28T05:03:23;1.60;;;1.10;;
10596;SDS011;5346;48.766;8.674;2023-12-28T05:05:57;1.40;;;1.08;;
10596;SDS011;5346;48.766;8.674;2023-12-28T05:08:35;3.10;;;1.10;;
10596;SDS011;5346;48.766;8.674;2023-12-28T05:11:02;2.03;;;1.40;;
10596;SDS011;5346;48.766;8.674;2023-12-28T05:13:35;1.60;;;1.15;;
10596;SDS011;5346;48.766;8.674;2023-12-28T05:16:14;1.95;;;1.25;;
10596;SDS011;5346;48.766;8.674;2023-12-28T05:18:48;3.85;;;1.20;;
10596;SDS011;5346;48.766;8.674;2023-12-28T05:21:22;1.27;;;1.10;;
10596;SDS011;5346;48.766;8.674;2023-12-28T05:23:53;1.95;;;1.20;;
10596;SDS011;5346;48.766;8.674;2023-12-28T05:26:27;1.98;;;1.33;;
10596;SDS011;5346;48.766;8.674;2023-12-28T05:29:06;3.47;;;1.40;;
10596;SDS011;5346;48.766;8.674;2023-12-28T05:31:39;2.83;;;1.25;;
10596;SDS011;5346;48.766;8.674;2023-12-28T05:34:07;3.03;;;1.67;;
10596;SDS011;5346;48.766;8.674;2023-12-28T05:36:41;2.08;;;1.30;;
10596;SDS011;5346;48.766;8.674;2023-12-28T05:39:18;2.35;;;1.17;;
10596;SDS011;5346;48.766;8.674;2023-12-28T05:41:53;2.75;;;1.35;;
10596;SDS011;5346;48.766;8.674;2023-12-28T05:44:27;3.38;;;0.95;;
10596;SDS011;5346;48.766;8.674;2023-12-28T05:47:01;3.38;;;1.23;;
10596;SDS011;5346;48.766;8.674;2023-12-28T05:49:30;1.15;;;1.00;;
10596;SDS011;5346;48.766;8.674;2023-12-28T05:52:00;1.67;;;1.40;;
10596;SDS011;5346;48.766;8.674;2023-12-28T05:54:34;3.95;;;1.10;;
10596;SDS011;5346;48.766;8.674;2023-12-28T05:57:08;2.80;;;1.20;;
10596;SDS011;5346;48.766;8.674;2023-12-28T05:59:39;2.70;;;1.33;;
10596;SDS011;5346;48.766;8.674;2023-12-28T06:02:13;2.58;;;1.27;;
10596;SDS011;5346;48.766;8.674;2023-12-28T06:04:41;3.33;;;1.20;;
10596;SDS011;5346;48.766;8.674;2023-12-28T06:07:18;2.47;;;1.48;;
10596;SDS011;5346;48.766;8.674;2023-12-28T06:09:46;1.95;;;1.30;;
10596;SDS011;5346;48.766;8.674;2023-12-28T06:12:21;1.23;;;0.90;;
10596;SDS011;5346;48.766;8.674;2023-12-28T06:14:48;2.17;;;1.30;;
10596;SDS011;5346;48.766;8.674;2023-12-28T06:17:16;1.55;;;1.20;;
10596;SDS011;5346;48.766;8.674;2023-12-28T06:19:52;2.58;;;1.35;;
10596;SDS011;5346;48.766;8.674;2023-12-28T06:22:26;3.40;;;1.40;;
10596;SDS011;5346;48.766;8.674;2023-12-28T06:25:01;3.63;;;1.30;;
10596;SDS011;5346;48.766;8.674;2023-12-28T06:27:37;1.47;;;1.30;;
10596;SDS011;5346;48.766;8.674;2023-12-28T06:30:14;1.83;;;1.33;;
10596;SDS011;5346;48.766;8.674;2023-12-28T06:32:55;3.40;;;1.40;;
10596;SDS011;5346;48.766;8.674;2023-12-28T06:35:29;1.60;;;1.23;;
10596;SDS011;5346;48.766;8.674;2023-12-28T06:38:04;2.53;;;1.40;;
10596;SDS011;5346;48.766;8.674;2023-12-28T06:40:38;1.70;;;1.50;;
10596;SDS011;5346;48.766;8.674;2023-12-28T06:43:12;1.83;;;1.40;;
10596;SDS011;5346;48.766;8.674;2023-12-28T06:45:40;2.07;;;1.20;;
10596;SDS011;5346;48.766;8.674;2023-12-28T06:48:14;2.30;;;1.43;;
10596;SDS011;5346;48.766;8.674;2023-12-28T06:50:42;1.43;;;1.30;;
10596;SDS011;5346;48.766;8.674;2023-12-28T06:53:16;3.50;;;1.37;;
10596;SDS011;5346;48.766;8.674;2023-12-28T06:55:48;1.37;;;1.27;;
10596;SDS011;5346;48.766;8.674;2023-12-28T06:58:22;1.70;;;1.27;;
10596;SDS011;5346;48.766;8.674;2023-12-28T07:00:57;1.83;;;1.30;;
10596;SDS011;5346;48.766;8.674;2023-12-28T07:03:34;5.63;;;1.53;;
10596;SDS011;5346;48.766;8.674;2023-12-28T07:06:10;2.60;;;1.33;;
10596;SDS011;5346;48.766;8.674;2023-12-28T07:08:47;1.73;;;1.40;;
10596;SDS011;5346;48.766;8.674;2023-12-28T07:11:16;3.90;;;1.83;;
10596;SDS011;5346;48.766;8.674;2023-12-28T07:13:51;2.93;;;1.60;;
10596;SDS011;5346;48.766;8.674;2023-12-28T07:16:20;2.70;;;1.43;;
10596;SDS011;5346;48.766;8.674;2023-12-28T07:18:54;2.73;;;1.13;;
10596;SDS011;5346;48.766;8.674;2023-12-28T07:21:23;4.87;;;1.40;;
10596;SDS011;5346;48.766;8.674;2023-12-28T07:23:50;2.80;;;1.30;;
10596;SDS011;5346;48.766;8.674;2023-12-28T07:26:25;1.63;;;1.20;;
10596;SDS011;5346;48.766;8.674;2023-12-28T07:28:53;1.60;;;1.40;;
10596;SDS011;5346;48.766;8.674;2023-12-28T07:31:22;2.60;;;1.30;;
10596;SDS011;5346;48.766;8.674;2023-12-28T07:34:00;1.83;;;1.33;;
10596;SDS011;5346;48.766;8.674;2023-12-28T07:36:34;2.87;;;1.40;;
10596;SDS011;5346;48.766;8.674;2023-12-28T07:39:07;1.33;;;1.13;;
10596;SDS011;5346;48.766;8.674;2023-12-28T07:41:48;2.20;;;1.40;;
10596;SDS011;5346;48.766;8.674;2023-12-28T07:44:22;2.20;;;1.47;;
10596;SDS011;5346;48.766;8.674;2023-12-28T07:46:56;2.80;;;1.60;;
10596;SDS011;5346;48.766;8.674;2023-12-28T07:49:35;1.97;;;1.30;;
10596;SDS011;5346;48.766;8.674;2023-12-28T07:52:04;2.70;;;1.50;;
10596;SDS011;5346;48.766;8.674;2023-12-28T07:54:45;2.87;;;1.53;;
10596;SDS011;5346;48.766;8.674;2023-12-28T07:57:20;1.73;;;1.23;;
10596;SDS011;5346;48.766;8.674;2023-12-28T07:59:49;2.80;;;1.33;;
10596;SDS011;5346;48.766;8.674;2023-12-28T08:02:41;5.80;;;1.63;;
10596;SDS011;5346;48.766;8.674;2023-12-28T08:05:14;3.77;;;1.60;;
10596;SDS011;5346;48.766;8.674;2023-12-28T08:07:48;2.20;;;1.50;;
10596;SDS011;5346;48.766;8.674;2023-12-28T08:10:26;3.13;;;1.60;;
10596;SDS011;5346;48.766;8.674;2023-12-28T08:12:54;3.07;;;1.47;;
10596;SDS011;5346;48.766;8.674;2023-12-28T08:15:27;3.70;;;1.80;;
10596;SDS011;5346;48.766;8.674;2023-12-28T08:17:55;2.10;;;1.60;;
10596;SDS011;5346;48.766;8.674;2023-12-28T08:20:36;3.00;;;1.60;;
10596;SDS011;5346;48.766;8.674;2023-12-28T08:23:18;2.77;;;1.57;;
10596;SDS011;5346;48.766;8.674;2023-12-28T08:25:53;3.20;;;1.40;;
10596;SDS011;5346;48.766;8.674;2023-12-28T08:28:28;3.60;;;1.67;;
10596;SDS011;5346;48.766;8.674;2023-12-28T08:31:01;2.67;;;2.07;;
10596;SDS011;5346;48.766;8.674;2023-12-28T08:33:36;3.53;;;1.30;;
10596;SDS011;5346;48.766;8.674;2023-12-28T08:36:13;3.27;;;1.43;;
10596;SDS011;5346;48.766;8.674;2023-12-28T08:38:56;2.10;;;1.50;;
10596;SDS011;5346;48.766;8.674;2023-12-28T08:41:23;3.43;;;1.60;;
10596;SDS011;5346;48.766;8.674;2023-12-28T08:43:57;2.77;;;1.80;;
10596;SDS011;5346;48.766;8.674;2023-12-28T08:46:25;4.23;;;1.80;;
10596;SDS011;5346;48.766;8.674;2023-12-28T08:49:00;3.00;;;1.70;;
10596;SDS011;5346;48.766;8.674;2023-12-28T08:51:28;2.30;;;1.67;;
10596;SDS011;5346;48.766;8.674;2023-12-28T08:54:01;4.63;;;2.07;;
10596;SDS011;5346;48.766;8.674;2023-12-28T08:56:35;3.30;;;1.80;;
10596;SDS011;5346;48.766;8.674;2023-12-28T08:59:09;3.77;;;1.77;;
10596;SDS011;5346;48.766;8.674;2023-12-28T09:01:37;4.47;;;2.00;;
10596;SDS011;5346;48.766;8.674;2023-12-28T09:04:13;6.83;;;2.20;;
10596;SDS011;5346;48.766;8.674;2023-12-28T09:06:48;2.60;;;1.70;;
10596;SDS011;5346;48.766;8.674;2023-12-28T09:09:25;3.27;;;1.73;;
10596;SDS011;5346;48.766;8.674;2023-12-28T09:11:59;3.87;;;1.93;;
10596;SDS011;5346;48.766;8.674;2023-12-28T09:14:44;2.80;;;1.40;;
10596;SDS011;5346;48.766;8.674;2023-12-28T09:17:27;3.90;;;1.90;;
10596;SDS011;5346;48.766;8.674;2023-12-28T09:20:00;4.10;;;1.70;;
10596;SDS011;5346;48.766;8.674;2023-12-28T09:22:29;3.47;;;1.63;;
10596;SDS011;5346;48.766;8.674;2023-12-28T09:25:04;2.50;;;1.63;;
10596;SDS011;5346;48.766;8.674;2023-12-28T09:27:32;5.20;;;1.93;;
10596;SDS011;5346;48.766;8.674;2023-12-28T09:30:13;5.10;;;1.50;;
10596;SDS011;5346;48.766;8.674;2023-12-28T09:32:41;1.80;;;1.50;;
10596;SDS011;5346;48.766;8.674;2023-12-28T09:35:16;2.83;;;1.50;;
10596;SDS011;5346;48.766;8.674;2023-12-28T09:37:43;2.40;;;1.60;;
10596;SDS011;5346;48.766;8.674;2023-12-28T09:40:32;5.23;;;1.60;;
10596;SDS011;5346;48.766;8.674;2023-12-28T09:43:24;1.97;;;1.37;;
10596;SDS011;5346;48.766;8.674;2023-12-28T09:46:00;3.13;;;1.50;;
10596;SDS011;5346;48.766;8.674;2023-12-28T09:48:35;2.20;;;1.30;;
10596;SDS011;5346;48.766;8.674;2023-12-28T09:51:12;2.73;;;1.50;;
10596;SDS011;5346;48.766;8.674;2023-12-28T09:53:42;1.30;;;1.13;;
10596;SDS011;5346;48.766;8.674;2023-12-28T09:56:21;1.63;;;1.27;;
10596;SDS011;5346;48.766;8.674;2023-12-28T09:58:56;1.93;;;1.70;;
10596;SDS011;5346;48.766;8.674;2023-12-28T10:01:31;1.67;;;1.40;;
10596;SDS011;5346;48.766;8.674;2023-12-28T10:04:00;2.27;;;1.47;;
10596;SDS011;5346;48.766;8.674;2023-12-28T10:06:36;2.40;;;1.40;;
10596;SDS011;5346;48.766;8.674;2023-12-28T10:09:05;2.50;;;1.20;;
10596;SDS011;5346;48.766;8.674;2023-12-28T10:11:42;2.13;;;1.27;;
10596;SDS011;5346;48.766;8.674;2023-12-28T10:14:10;3.13;;;1.30;;
10596;SDS011;5346;48.766;8.674;2023-12-28T10:16:54;1.40;;;1.00;;
10596;SDS011;5346;48.766;8.674;2023-12-28T10:19:28;1.57;;;1.17;;
10596;SDS011;5346;48.766;8.674;2023-12-28T10:22:03;2.03;;;1.57;;
10596;SDS011;5346;48.766;8.674;2023-12-28T10:24:41;3.10;;;1.20;;
10596;SDS011;5346;48.766;8.674;2023-12-28T10:27:09;3.17;;;1.30;;
10596;SDS011;5346;48.766;8.674;2023-12-28T10:29:44;4.23;;;1.47;;
10596;SDS011;5346;48.766;8.674;2023-12-28T10:32:19;2.10;;;1.20;;
10596;SDS011;5346;48.766;8.674;2023-12-28T10:34:53;1.67;;;1.30;;
10596;SDS011;5346;48.766;8.674;2023-12-28T10:37:27;2.47;;;1.50;;
10596;SDS011;5346;48.766;8.674;2023-12-28T10:40:13;3.03;;;1.33;;
10596;SDS011;5346;48.766;8.674;2023-12-28T10:43:01;1.10;;;1.00;;
10596;SDS011;5346;48.766;8.674;2023-12-28T10:45:39;2.35;;;1.48;;
10596;SDS011;5346;48.766;8.674;2023-12-28T10:48:10;1.47;;;1.10;;
10596;SDS011;5346;48.766;8.674;2023-12-28T10:50:46;1.75;;;1.13;;
10596;SDS011;5346;48.766;8.674;2023-12-28T10:53:21;1.35;;;1.15;;
10596;SDS011;5346;48.766;8.674;2023-12-28T10:56:59;1.13;;;0.90;;
10596;SDS011;5346;48.766;8.674;2023-12-28T10:59:37;1.43;;;1.00;;
10596;SDS011;5346;48.766;8.674;2023-12-28T11:02:26;1.30;;;0.90;;
10596;SDS011;5346;48.766;8.674;2023-12-28T11:05:15;3.03;;;1.03;;
10596;SDS011;5346;48.766;8.674;2023-12-28T11:07:50;1.37;;;0.93;;
10596;SDS011;5346;48.766;8.674;2023-12-28T11:10:21;2.22;;;1.00;;
10596;SDS011;5346;48.766;8.674;2023-12-28T11:12:56;1.10;;;1.00;;
10596;SDS011;5346;48.766;8.674;2023-12-28T11:15:37;1.20;;;1.08;;
10596;SDS011;5346;48.766;8.674;2023-12-28T11:18:05;1.10;;;1.00;;
10596;SDS011;5346;48.766;8.674;2023-12-28T11:20:33;1.58;;;1.25;;
10596;SDS011;5346;48.766;8.674;2023-12-28T11:23:11;2.17;;;1.10;;
10596;SDS011;5346;48.766;8.674;2023-12-28T11:25:40;1.00;;;0.97;;
10596;SDS011;5346;48.766;8.674;2023-12-28T11:28:15;1.80;;;1.30;;
10596;SDS011;5346;48.766;8.674;2023-12-28T11:30:49;1.23;;;0.85;;
10596;SDS011;5346;48.766;8.674;2023-12-28T11:33:30;1.17;;;0.93;;
10596;SDS011;5346;48.766;8.674;2023-12-28T11:35:58;1.83;;;1.10;;
10596;SDS011;5346;48.766;8.674;2023-12-28T11:38:38;1.50;;;1.03;;
10596;SDS011;5346;48.766;8.674;2023-12-28T11:41:16;1.10;;;1.00;;
10596;SDS011;5346;48.766;8.674;2023-12-28T11:43:51;2.00;;;1.25;;
10596;SDS011;5346;48.766;8.674;2023-12-28T11:46:30;1.08;;;0.98;;
10596;SDS011;5346;48.766;8.674;2023-12-28T11:49:09;1.85;;;1.15;;
10596;SDS011;5346;48.766;8.674;2023-12-28T11:51:54;3.63;;;2.90;;
10596;SDS011;5346;48.766;8.674;2023-12-28T11:54:33;1.20;;;1.10;;
10596;SDS011;5346;48.766;8.674;2023-12-28T11:57:01;2.10;;;1.80;;
10596;SDS011;5346;48.766;8.674;2023-12-28T11:59:40;1.67;;;1.58;;
10596;SDS011;5346;48.766;8.674;2023-12-28T12:02:13;1.92;;;1.75;;
10596;SDS011;5346;48.766;8.674;2023-12-28T12:04:41;1.35;;;1.10;;
10596;SDS011;5346;48.766;8.674;2023-12-28T12:07:21;1.75;;;1.27;;
10596;SDS011;5346;48.766;8.674;2023-12-28T12:09:48;1.95;;;1.20;;
10596;SDS011;5346;48.766;8.674;2023-12-28T12:12:28;1.10;;;1.00;;
10596;SDS011;5346;48.766;8.674;2023-12-28T12:15:03;3.45;;;1.27;;
10596;SDS011;5346;48.766;8.674;2023-12-28T12:17:38;2.53;;;1.63;;
10596;SDS011;5346;48.766;8.674;2023-12-28T12:20:06;1.58;;;0.98;;
10596;SDS011;5346;48.766;8.674;2023-12-28T12:22:36;1.02;;;1.00;;
10596;SDS011;5346;48.766;8.674;2023-12-28T12:25:10;0.88;;;0.88;;
10596;SDS011;5346;48.766;8.674;2023-12-28T12:27:44;2.67;;;1.17;;
10596;SDS011;5346;48.766;8.674;2023-12-28T12:30:12;4.15;;;3.30;;
10596;SDS011;5346;48.766;8.674;2023-12-28T12:32:46;1.80;;;1.58;;
10596;SDS011;5346;48.766;8.674;2023-12-28T12:35:21;1.67;;;1.02;;
10596;SDS011;5346;48.766;8.674;2023-12-28T12:37:55;1.90;;;1.65;;
10596;SDS011;5346;48.766;8.674;2023-12-28T12:40:49;1.65;;;1.30;;
10596;SDS011;5346;48.766;8.674;2023-12-28T12:43:24;2.13;;;1.00;;
10596;SDS011;5346;48.766;8.674;2023-12-28T12:46:11;1.00;;;0.90;;
10596;SDS011;5346;48.766;8.674;2023-12-28T12:48:54;1.42;;;1.20;;
10596;SDS011;5346;48.766;8.674;2023-12-28T12:51:23;1.60;;;1.50;;
10596;SDS011;5346;48.766;8.674;2023-12-28T12:53:59;1.60;;;1.48;;
10596;SDS011;5346;48.766;8.674;2023-12-28T12:56:29;1.55;;;1.42;;
10596;SDS011;5346;48.766;8.674;2023-12-28T12:59:06;1.27;;;1.15;;
10596;SDS011;5346;48.766;8.674;2023-12-28T13:01:39;1.67;;;1.25;;
10596;SDS011;5346;48.766;8.674;2023-12-28T13:04:13;1.55;;;1.20;;
10596;SDS011;5346;48.766;8.674;2023-12-28T13:06:42;1.35;;;1.25;;
10596;SDS011;5346;48.766;8.674;2023-12-28T13:09:19;1.55;;;1.45;;
10596;SDS011;5346;48.766;8.674;2023-12-28T13:11:53;1.15;;;0.73;;
10596;SDS011;5346;48.766;8.674;2023-12-28T13:14:27;1.10;;;1.00;;
10596;SDS011;5346;48.766;8.674;2023-12-28T13:17:02;1.20;;;1.10;;
10596;SDS011;5346;48.766;8.674;2023-12-28T13:19:30;2.33;;;0.87;;
10596;SDS011;5346;48.766;8.674;2023-12-28T13:22:05;1.23;;;1.13;;
10596;SDS011;5346;48.766;8.674;2023-12-28T13:24:39;2.30;;;1.07;;
10596;SDS011;5346;48.766;8.674;2023-12-28T13:27:12;1.10;;;1.00;;
10596;SDS011;5346;48.766;8.674;2023-12-28T13:29:42;1.17;;;1.07;;
10596;SDS011;5346;48.766;8.674;2023-12-28T13:32:16;1.10;;;1.00;;
10596;SDS011;5346;48.766;8.674;2023-12-28T13:34:51;1.00;;;0.70;;
10596;SDS011;5346;48.766;8.674;2023-12-28T13:37:29;1.20;;;1.10;;
10596;SDS011;5346;48.766;8.674;2023-12-28T13:40:10;1.30;;;1.10;;
10596;SDS011;5346;48.766;8.674;2023-12-28T13:42:46;1.33;;;0.90;;
10596;SDS011;5346;48.766;8.674;2023-12-28T13:45:22;1.63;;;1.13;;
10596;SDS011;5346;48.766;8.674;2023-12-28T13:47:57;0.83;;;0.70;;
10596;SDS011;5346;48.766;8.674;2023-12-28T13:50:25;1.00;;;0.90;;
10596;SDS011;5346;48.766;8.674;2023-12-28T13:52:59;0.90;;;0.90;;
10596;SDS011;5346;48.766;8.674;2023-12-28T13:55:27;1.30;;;1.10;;
10596;SDS011;5346;48.766;8.674;2023-12-28T13:58:02;0.80;;;0.80;;
10596;SDS011;5346;48.766;8.674;2023-12-28T14:00:31;1.20;;;1.10;;
10596;SDS011;5346;48.766;8.674;2023-12-28T14:02:58;2.57;;;1.00;;
10596;SDS011;5346;48.766;8.674;2023-12-28T14:05:37;1.23;;;0.80;;
10596;SDS011;5346;48.766;8.674;2023-12-28T14:08:06;3.57;;;1.10;;
10596;SDS011;5346;48.766;8.674;2023-12-28T14:10:40;1.53;;;1.03;;
10596;SDS011;5346;48.766;8.674;2023-12-28T14:13:08;9.23;;;5.47;;
10596;SDS011;5346;48.766;8.674;2023-12-28T14:15:43;11.80;;;7.30;;
10596;SDS011;5346;48.766;8.674;2023-12-28T14:18:17;29.37;;;15.97;;
10596;SDS011;5346;48.766;8.674;2023-12-28T14:20:56;13.10;;;7.47;;
10596;SDS011;5346;48.766;8.674;2023-12-28T14:23:24;21.57;;;12.10;;
10596;SDS011;5346;48.766;8.674;2023-12-28T14:26:14;28.17;;;15.73;;
10596;SDS011;5346;48.766;8.674;2023-12-28T14:28:42;14.83;;;8.70;;
10596;SDS011;5346;48.766;8.674;2023-12-28T14:31:20;4.17;;;2.67;;
10596;SDS011;5346;48.766;8.674;2023-12-28T14:33:48;3.10;;;1.50;;
10596;SDS011;5346;48.766;8.674;2023-12-28T14:36:33;3.23;;;1.43;;
10596;SDS011;5346;48.766;8.674;2023-12-28T14:39:10;1.60;;;1.50;;
10596;SDS011;5346;48.766;8.674;2023-12-28T14:41:53;3.57;;;2.80;;
10596;SDS011;5346;48.766;8.674;2023-12-28T14:44:21;4.93;;;3.97;;
10596;SDS011;5346;48.766;8.674;2023-12-28T14:46:56;1.47;;;1.37;;
10596;SDS011;5346;48.766;8.674;2023-12-28T14:49:24;1.47;;;1.37;;
10596;SDS011;5346;48.766;8.674;2023-12-28T14:52:00;1.77;;;1.30;;
10596;SDS011;5346;48.766;8.674;2023-12-28T14:54:34;1.90;;;1.60;;
10596;SDS011;5346;48.766;8.674;2023-12-28T14:57:08;2.23;;;1.60;;
10596;SDS011;5346;48.766;8.674;2023-12-28T14:59:35;7.00;;;1.63;;
10596;SDS011;5346;48.766;8.674;2023-12-28T15:02:03;2.47;;;1.80;;
10596;SDS011;5346;48.766;8.674;2023-12-28T15:04:37;2.30;;;2.00;;
10596;SDS011;5346;48.766;8.674;2023-12-28T15:07:10;3.03;;;2.33;;
10596;SDS011;5346;48.766;8.674;2023-12-28T15:09:45;2.67;;;1.90;;
10596;SDS011;5346;48.766;8.674;2023-12-28T15:12:13;25.03;;;14.57;;
10596;SDS011;5346;48.766;8.674;2023-12-28T15:14:41;19.53;;;12.27;;
10596;SDS011;5346;48.766;8.674;2023-12-28T15:17:15;17.47;;;10.67;;
10596;SDS011;5346;48.766;8.674;2023-12-28T15:19:44;11.73;;;6.43;;
10596;SDS011;5346;48.766;8.674;2023-12-28T15:22:18;13.10;;;7.67;;
10596;SDS011;5346;48.766;8.674;2023-12-28T15:24:53;4.53;;;2.67;;
10596;SDS011;5346;48.766;8.674;2023-12-28T15:27:21;3.37;;;2.80;;
10596;SDS011;5346;48.766;8.674;2023-12-28T15:29:55;4.47;;;3.50;;
10596;SDS011;5346;48.766;8.674;2023-12-28T15:32:23;14.17;;;9.00;;
10596;SDS011;5346;48.766;8.674;2023-12-28T15:34:57;6.07;;;4.00;;
10596;SDS011;5346;48.766;8.674;2023-12-28T15:37:39;4.87;;;3.10;;
10596;SDS011;5346;48.766;8.674;2023-12-28T15:40:13;7.10;;;3.80;;
10596;SDS011;5346;48.766;8.674;2023-12-28T15:42:54;4.47;;;2.67;;
10596;SDS011;5346;48.766;8.674;2023-12-28T15:45:28;3.93;;;2.90;;
10596;SDS011;5346;48.766;8.674;2023-12-28T15:47:58;5.20;;;3.40;;